createdAt,value
2023-05-12T00:00:25.905Z,9.44
2023-05-12T00:03:10.430Z,9.37
2023-05-12T00:05:36.776Z,9.31
2023-05-12T00:08:03.074Z,9.25
2023-05-12T00:10:29.581Z,9.24
2023-05-12T00:12:55.955Z,9.21
2023-05-12T00:15:22.289Z,9.17
2023-05-12T00:17:48.755Z,9.15
2023-05-12T00:20:15.067Z,9.13
2023-05-12T00:22:41.367Z,9.09
2023-05-12T00:25:07.874Z,9.08
2023-05-12T00:27:34.174Z,9.04
2023-05-12T00:30:00.501Z,9.02
2023-05-12T00:32:26.842Z,9.01
2023-05-12T00:34:53.124Z,8.97
2023-05-12T00:37:19.548Z,8.95
2023-05-12T00:39:45.852Z,8.95
2023-05-12T00:42:12.260Z,8.95
2023-05-12T00:44:38.568Z,8.95
2023-05-12T00:47:05.029Z,8.96
2023-05-12T00:49:31.850Z,8.96
2023-05-12T00:51:58.598Z,8.95
2023-05-12T00:54:26.043Z,8.93
2023-05-12T00:56:52.440Z,8.90
2023-05-12T00:59:20.347Z,8.89
2023-05-12T01:01:48.552Z,8.89
2023-05-12T01:04:15.796Z,8.88
2023-05-12T01:06:42.376Z,8.84
2023-05-12T01:09:09.240Z,8.80
2023-05-12T01:11:36.923Z,8.74
2023-05-12T01:14:04.273Z,8.70
2023-05-12T01:16:42.602Z,8.67
2023-05-12T01:19:14.246Z,8.62
2023-05-12T01:21:40.675Z,8.59
2023-05-12T01:24:07.943Z,8.56
2023-05-12T01:26:34.921Z,8.53
2023-05-12T01:29:01.899Z,8.48
2023-05-12T01:31:28.304Z,8.44
2023-05-12T01:33:54.637Z,8.44
2023-05-12T01:36:21.102Z,8.44
2023-05-12T01:38:47.388Z,8.42
2023-05-12T01:41:13.903Z,8.40
2023-05-12T01:43:40.713Z,8.37
2023-05-12T01:46:07.086Z,8.32
2023-05-12T01:48:34.074Z,8.24
2023-05-12T01:51:00.639Z,8.22
2023-05-12T01:53:27.036Z,8.22
2023-05-12T01:55:53.503Z,8.22
2023-05-12T01:58:20.333Z,8.18
2023-05-12T02:00:47.110Z,8.18
2023-05-12T02:03:15.342Z,8.18
2023-05-12T02:05:41.787Z,8.19
2023-05-12T02:08:08.044Z,8.18
2023-05-12T02:10:34.881Z,8.17
2023-05-12T02:13:01.214Z,8.14
2023-05-12T02:15:27.646Z,8.10
2023-05-12T02:17:55.189Z,8.07
2023-05-12T02:20:22.250Z,8.02
2023-05-12T02:22:48.741Z,7.98
2023-05-12T02:25:15.095Z,7.96
2023-05-12T02:27:41.535Z,7.96
2023-05-12T02:30:08.121Z,7.95
2023-05-12T02:32:34.577Z,7.92
2023-05-12T02:35:01.114Z,7.87
2023-05-12T02:37:27.658Z,7.80
2023-05-12T02:39:53.924Z,7.73
2023-05-12T02:42:20.202Z,7.69
2023-05-12T02:44:46.809Z,7.68
2023-05-12T02:47:13.115Z,7.64
2023-05-12T02:49:39.401Z,7.58
2023-05-12T02:52:06.182Z,7.54
2023-05-12T02:54:32.454Z,7.49
2023-05-12T02:57:03.198Z,7.45
2023-05-12T02:59:29.456Z,7.41
2023-05-12T03:01:55.888Z,7.39
2023-05-12T03:04:22.468Z,7.39
2023-05-12T03:06:48.799Z,7.37
2023-05-12T03:09:15.179Z,7.37
2023-05-12T03:11:41.390Z,7.39
2023-05-12T03:14:07.744Z,7.46
2023-05-12T03:16:34.242Z,7.52
2023-05-12T03:19:00.794Z,7.56
2023-05-12T03:21:27.169Z,7.61
2023-05-12T03:23:53.453Z,7.67
2023-05-12T03:26:19.750Z,7.72
2023-05-12T03:28:46.055Z,7.77
2023-05-12T03:31:12.350Z,7.82
2023-05-12T03:33:38.618Z,7.87
2023-05-12T03:36:05.110Z,7.93
2023-05-12T03:38:31.371Z,8.02
2023-05-12T03:41:07.559Z,8.11
2023-05-12T03:43:34.366Z,8.19
2023-05-12T03:46:00.689Z,8.25
2023-05-12T03:48:27.190Z,8.34
2023-05-12T03:50:53.538Z,8.41
2023-05-12T03:53:21.141Z,8.48
2023-05-12T03:55:47.541Z,8.57
2023-05-12T03:58:13.940Z,8.68
2023-05-12T04:00:40.863Z,8.78
2023-05-12T04:03:07.244Z,8.88
2023-05-12T04:05:33.602Z,8.99
2023-05-12T04:07:59.882Z,9.07
2023-05-12T04:10:26.179Z,9.16
2023-05-12T04:12:52.473Z,9.24
2023-05-12T04:15:19.413Z,9.33
2023-05-12T04:17:46.009Z,9.44
2023-05-12T04:20:12.444Z,9.54
2023-05-12T04:22:38.969Z,9.66
2023-05-12T04:25:05.388Z,9.76
2023-05-12T04:27:31.956Z,9.86
2023-05-12T04:29:58.822Z,9.97
2023-05-12T04:32:25.265Z,10.08
2023-05-12T04:34:51.654Z,10.17
2023-05-12T04:37:17.900Z,10.26
2023-05-12T04:39:44.929Z,10.35
2023-05-12T04:42:11.355Z,10.44
2023-05-12T04:44:37.680Z,10.51
2023-05-12T04:47:06.032Z,10.61
2023-05-12T04:49:32.561Z,10.68
2023-05-12T04:51:58.807Z,10.74
2023-05-12T04:54:25.122Z,10.82
2023-05-12T04:56:52.442Z,10.89
2023-05-12T04:59:18.793Z,10.95
2023-05-12T05:01:49.660Z,11.05
2023-05-12T05:04:16.034Z,11.13
2023-05-12T05:06:42.781Z,11.19
2023-05-12T05:09:09.106Z,11.25
2023-05-12T05:11:35.637Z,11.33
2023-05-12T05:14:01.953Z,11.43
2023-05-12T05:16:28.718Z,11.52
2023-05-12T05:18:55.396Z,11.60
2023-05-12T05:21:23.508Z,11.71
2023-05-12T05:23:49.731Z,11.79
2023-05-12T05:26:16.139Z,11.86
2023-05-12T05:28:42.701Z,11.95
2023-05-12T05:31:14.299Z,12.01
2023-05-12T05:33:40.699Z,12.09
2023-05-12T05:36:07.370Z,12.17
2023-05-12T05:38:33.845Z,12.25
2023-05-12T05:41:00.136Z,12.32
2023-05-12T05:43:27.158Z,12.38
2023-05-12T05:45:53.868Z,12.47
2023-05-12T05:48:21.179Z,12.55
2023-05-12T05:50:47.815Z,12.65
2023-05-12T05:53:14.432Z,12.74
2023-05-12T05:55:41.065Z,12.82
2023-05-12T05:58:07.464Z,12.94
2023-05-12T06:00:33.801Z,13.06
2023-05-12T06:03:00.276Z,13.19
2023-05-12T06:05:26.669Z,13.28
2023-05-12T06:07:53.075Z,13.40
2023-05-12T06:10:19.735Z,13.49
2023-05-12T06:12:46.450Z,13.62
2023-05-12T06:15:12.817Z,13.69
2023-05-12T06:17:39.230Z,13.76
2023-05-12T06:20:05.919Z,13.84
2023-05-12T06:22:34.690Z,13.95
2023-05-12T06:25:01.865Z,14.06
2023-05-12T06:27:55.069Z,14.16
2023-05-12T06:30:22.534Z,14.25
2023-05-12T06:32:52.322Z,14.32
2023-05-12T06:35:19.213Z,14.39
2023-05-12T06:37:47.263Z,14.48
2023-05-12T06:40:14.836Z,14.59
2023-05-12T06:42:44.202Z,14.70
2023-05-12T06:45:20.965Z,14.78
2023-05-12T06:47:52.858Z,14.85
2023-05-12T06:50:19.357Z,14.91
2023-05-12T06:52:49.526Z,14.98
2023-05-12T06:55:17.763Z,15.10
2023-05-12T06:57:44.462Z,15.17
2023-05-12T07:00:11.114Z,15.23
2023-05-12T07:02:37.462Z,15.25
2023-05-12T07:05:04.430Z,15.31
2023-05-12T07:07:30.984Z,15.37
2023-05-12T07:09:57.446Z,15.41
2023-05-12T07:12:23.914Z,15.51
2023-05-12T07:14:50.378Z,15.63
2023-05-12T07:17:16.745Z,15.69
2023-05-12T07:19:43.280Z,15.79
2023-05-12T07:22:09.707Z,15.85
2023-05-12T07:24:36.544Z,15.92
2023-05-12T07:27:06.443Z,16.05
2023-05-12T07:29:33.176Z,16.18
2023-05-12T07:32:00.431Z,16.21
2023-05-12T07:34:31.612Z,16.24
2023-05-12T07:37:03.931Z,16.29
2023-05-12T07:39:34.604Z,16.36
2023-05-12T07:42:07.570Z,16.45
2023-05-12T07:44:40.546Z,16.62
2023-05-12T07:47:10.542Z,16.72
2023-05-12T07:49:42.829Z,16.83
2023-05-12T07:52:10.672Z,16.97
2023-05-12T07:54:54.736Z,17.11
2023-05-12T07:57:27.130Z,17.22
2023-05-12T07:59:59.542Z,17.28
2023-05-12T08:02:45.545Z,17.36
2023-05-12T08:05:25.673Z,17.45
2023-05-12T08:08:00.483Z,17.50
2023-05-12T08:10:37.596Z,17.61
2023-05-12T08:13:14.113Z,17.70
2023-05-12T08:15:40.778Z,17.81
2023-05-12T08:18:09.376Z,17.88
2023-05-12T08:20:35.786Z,17.94
2023-05-12T08:23:02.277Z,17.97
2023-05-12T08:25:28.681Z,18.02
2023-05-12T08:31:10.345Z,18.26
2023-05-12T08:33:49.756Z,18.32
2023-05-12T08:36:24.639Z,18.42
2023-05-12T08:38:51.918Z,18.56
2023-05-12T08:41:19.615Z,18.67
2023-05-12T08:43:49.818Z,18.81
2023-05-12T08:46:16.549Z,18.93
2023-05-12T08:48:44.549Z,18.97
2023-05-12T08:51:12.442Z,18.99
2023-05-12T08:53:40.044Z,19.01
2023-05-12T08:58:41.764Z,19.12
2023-05-12T09:01:10.382Z,19.20
2023-05-12T09:03:36.833Z,19.28
2023-05-12T09:06:16.082Z,19.35
2023-05-12T09:08:43.201Z,19.42
2023-05-12T09:11:10.917Z,19.53
2023-05-12T09:13:54.460Z,19.59
2023-05-12T09:16:25.138Z,19.68
2023-05-12T09:18:55.964Z,19.75
2023-05-12T09:21:23.343Z,19.84
2023-05-12T09:23:53.816Z,19.92
2023-05-12T09:26:20.942Z,20.02
2023-05-12T09:28:47.703Z,20.11
2023-05-12T09:31:15.204Z,20.23
2023-05-12T09:33:44.266Z,20.35
2023-05-12T09:36:11.135Z,20.36
2023-05-12T09:38:37.529Z,20.40
2023-05-12T09:41:03.850Z,20.50
2023-05-12T09:43:30.219Z,20.58
2023-05-12T09:45:56.540Z,20.62
2023-05-12T09:52:19.205Z,21.02
2023-05-12T09:54:47.193Z,21.29
2023-05-12T09:57:16.813Z,21.67
2023-05-12T09:59:45.747Z,22.05
2023-05-12T10:02:12.764Z,22.37
2023-05-12T10:04:44.609Z,22.57
2023-05-12T10:07:12.370Z,22.80
2023-05-12T10:09:40.163Z,22.90
2023-05-12T10:12:07.336Z,23.08
2023-05-12T10:14:34.648Z,23.41
2023-05-12T10:17:01.271Z,23.79
2023-05-12T10:19:30.056Z,24.14
2023-05-12T10:21:56.999Z,24.51
2023-05-12T10:24:26.537Z,24.73
2023-05-12T10:26:55.899Z,24.82
2023-05-12T10:29:25.615Z,24.97
2023-05-12T10:31:51.941Z,25.34
2023-05-12T10:34:18.299Z,25.59
2023-05-12T10:36:48.385Z,25.21
2023-05-12T10:39:14.862Z,25.48
2023-05-12T10:41:41.679Z,25.88
2023-05-12T10:44:08.236Z,26.34
2023-05-12T10:46:34.865Z,26.91
2023-05-12T10:49:02.706Z,27.55
2023-05-12T10:51:33.298Z,27.85
2023-05-12T10:54:01.349Z,28.24
2023-05-12T10:56:29.366Z,28.65
2023-05-12T10:59:20.699Z,29.13
2023-05-12T11:02:01.152Z,29.51
2023-05-12T11:04:50.232Z,29.71
2023-05-12T11:07:24.438Z,30.10
2023-05-12T11:10:18.090Z,30.57
2023-05-12T11:12:44.714Z,30.95
2023-05-12T11:15:36.274Z,31.34
2023-05-12T11:18:02.924Z,31.48
2023-05-12T11:20:30.926Z,30.44
2023-05-12T11:22:57.924Z,30.44
2023-05-12T11:25:25.544Z,30.48
2023-05-12T11:27:52.033Z,30.52
2023-05-12T11:30:18.384Z,30.77
2023-05-12T11:32:44.777Z,31.35
2023-05-12T11:35:15.004Z,32.03
2023-05-12T11:37:42.072Z,32.47
2023-05-12T11:40:14.666Z,32.25
2023-05-12T11:42:41.437Z,32.93
2023-05-12T11:45:18.336Z,33.68
2023-05-12T11:47:45.371Z,33.83
2023-05-12T11:50:11.813Z,33.95
2023-05-12T11:52:38.706Z,32.30
2023-05-12T11:55:06.784Z,31.62
2023-05-12T11:57:34.059Z,31.54
2023-05-12T12:00:02.204Z,30.06
2023-05-12T12:02:32.667Z,29.73
2023-05-12T12:04:59.541Z,29.27
2023-05-12T12:07:30.215Z,28.18
2023-05-12T12:09:56.666Z,28.14
2023-05-12T12:12:23.030Z,28.77
2023-05-12T12:14:52.077Z,29.62
2023-05-12T12:20:30.338Z,31.01
2023-05-12T12:23:01.264Z,31.11
2023-05-12T12:25:34.947Z,29.99
2023-05-12T12:28:03.521Z,28.81
2023-05-12T12:30:30.328Z,29.58
2023-05-12T12:32:58.369Z,30.27
2023-05-12T12:35:29.207Z,29.96
2023-05-12T12:37:56.190Z,28.59
2023-05-12T12:40:27.783Z,27.66
2023-05-12T12:42:54.429Z,28.52
2023-05-12T12:45:26.836Z,29.37
2023-05-12T12:47:56.671Z,30.02
2023-05-12T12:50:27.305Z,29.54
2023-05-12T12:52:53.901Z,30.28
2023-05-12T12:55:20.724Z,31.42
2023-05-12T12:57:48.588Z,32.46
2023-05-12T13:00:15.250Z,33.39
2023-05-12T13:02:46.361Z,33.78
2023-05-12T13:05:23.082Z,33.61
2023-05-12T13:07:50.232Z,34.63
2023-05-12T13:10:17.182Z,33.65
2023-05-12T13:12:46.066Z,31.35
2023-05-12T13:15:12.472Z,29.43
2023-05-12T13:17:38.904Z,28.03
2023-05-12T13:20:05.966Z,29.41
2023-05-12T13:22:32.431Z,30.96
2023-05-12T13:25:00.054Z,30.31
2023-05-12T13:27:31.169Z,28.79
2023-05-12T13:30:00.355Z,28.91
2023-05-12T13:32:29.515Z,30.29
2023-05-12T13:34:57.125Z,30.21
2023-05-12T13:37:23.561Z,29.58
2023-05-12T13:39:49.917Z,28.60
2023-05-12T13:42:16.306Z,28.01
2023-05-12T13:44:42.974Z,29.75
2023-05-12T13:47:09.341Z,31.55
2023-05-12T13:49:36.166Z,33.04
2023-05-12T13:52:03.205Z,34.36
2023-05-12T13:58:10.690Z,31.71
2023-05-12T14:00:49.278Z,29.39
2023-05-12T14:03:46.019Z,27.17
2023-05-12T14:06:13.486Z,27.66
2023-05-12T14:09:07.104Z,29.85
2023-05-12T14:11:43.719Z,31.27
2023-05-12T14:14:11.436Z,32.32
2023-05-12T14:16:44.895Z,33.13
2023-05-12T14:19:16.251Z,33.99
2023-05-12T14:21:53.222Z,34.70
2023-05-12T14:24:19.542Z,34.69
2023-05-12T14:26:45.871Z,34.65
2023-05-12T14:29:12.286Z,33.64
2023-05-12T14:31:38.916Z,34.36
2023-05-12T14:34:05.287Z,34.27
2023-05-12T14:36:32.135Z,33.68
2023-05-12T14:38:58.458Z,33.90
2023-05-12T14:41:24.723Z,33.12
2023-05-12T14:43:51.014Z,32.94
2023-05-12T14:46:17.540Z,33.75
2023-05-12T14:48:43.987Z,34.19
2023-05-12T14:51:10.567Z,34.87
2023-05-12T14:53:36.827Z,35.38
2023-05-12T14:56:03.202Z,35.75
2023-05-12T14:58:29.755Z,35.95
2023-05-12T15:00:56.188Z,36.15
2023-05-12T15:03:22.682Z,36.08
2023-05-12T15:06:04.699Z,36.00
2023-05-12T15:08:33.398Z,36.14
2023-05-12T15:10:59.791Z,36.10
2023-05-12T15:13:26.101Z,35.82
2023-05-12T15:15:55.063Z,35.54
2023-05-12T15:18:25.135Z,35.39
2023-05-12T15:20:51.789Z,35.48
2023-05-12T15:23:18.107Z,35.78
2023-05-12T15:25:46.540Z,35.78
2023-05-12T15:28:12.980Z,35.88
2023-05-12T15:30:52.989Z,35.92
2023-05-12T15:33:19.653Z,34.45
2023-05-12T15:35:48.448Z,34.32
2023-05-12T15:38:14.863Z,34.49
2023-05-12T15:40:41.399Z,34.19
2023-05-12T15:43:08.029Z,33.56
2023-05-12T15:45:34.379Z,33.09
2023-05-12T15:48:00.771Z,32.65
2023-05-12T15:50:27.450Z,32.19
2023-05-12T15:52:53.764Z,31.72
2023-05-12T15:55:22.742Z,31.38
2023-05-12T15:57:51.039Z,31.14
2023-05-12T16:00:17.526Z,30.74
2023-05-12T16:02:44.212Z,30.13
2023-05-12T16:05:11.009Z,30.25
2023-05-12T16:07:39.851Z,29.92
2023-05-12T16:10:06.932Z,28.46
2023-05-12T16:12:36.159Z,26.94
2023-05-12T16:15:02.460Z,26.08
2023-05-12T16:17:29.996Z,25.83
2023-05-12T16:19:56.501Z,25.43
2023-05-12T16:22:23.266Z,24.98
2023-05-12T16:24:50.672Z,24.36
2023-05-12T16:27:18.839Z,24.40
2023-05-12T16:29:45.313Z,25.33
2023-05-12T16:32:11.683Z,25.64
2023-05-12T16:34:38.125Z,25.41
2023-05-12T16:37:05.039Z,25.16
2023-05-12T16:39:34.065Z,24.68
2023-05-12T16:42:00.474Z,23.77
2023-05-12T16:44:27.584Z,22.91
2023-05-12T16:46:55.858Z,22.17
2023-05-12T16:49:25.131Z,21.57
2023-05-12T16:51:51.629Z,21.16
2023-05-12T16:54:18.237Z,20.90
2023-05-12T16:56:44.628Z,21.35
2023-05-12T16:59:10.952Z,21.85
2023-05-12T17:01:37.437Z,21.79
2023-05-12T17:04:03.935Z,21.25
2023-05-12T17:06:30.599Z,20.75
2023-05-12T17:08:56.927Z,20.33
2023-05-12T17:11:24.482Z,19.97
2023-05-12T17:13:50.746Z,19.67
2023-05-12T17:16:17.210Z,19.44
2023-05-12T17:21:12.982Z,19.00
2023-05-12T17:23:39.412Z,18.81
2023-05-12T17:26:05.730Z,18.62
2023-05-12T17:28:32.143Z,18.43
2023-05-12T17:30:58.531Z,18.24
2023-05-12T17:33:24.904Z,17.99
2023-05-12T17:36:03.757Z,17.84
2023-05-12T17:38:44.143Z,17.62
2023-05-12T17:41:10.638Z,17.41
2023-05-12T17:43:36.995Z,17.20
2023-05-12T17:46:03.384Z,17.05
2023-05-12T17:48:29.717Z,16.92
2023-05-12T17:50:56.028Z,16.77
2023-05-12T17:53:22.406Z,16.62
2023-05-12T17:56:22.670Z,16.49
2023-05-12T17:58:51.132Z,16.32
2023-05-12T18:01:17.554Z,16.20
2023-05-12T18:03:49.418Z,16.12
2023-05-12T18:06:15.850Z,16.00
2023-05-12T18:08:42.309Z,15.90
2023-05-12T18:11:09.543Z,15.77
2023-05-12T18:13:36.017Z,15.62
2023-05-12T18:16:02.370Z,15.45
2023-05-12T18:18:28.855Z,15.32
2023-05-12T18:20:55.236Z,15.16
2023-05-12T18:23:30.208Z,15.05
2023-05-12T18:25:56.666Z,14.90
2023-05-12T18:28:24.023Z,14.75
2023-05-12T18:30:50.420Z,14.60
2023-05-12T18:33:16.937Z,14.47
2023-05-12T18:35:43.379Z,14.35
2023-05-12T18:38:09.737Z,14.24
2023-05-12T18:40:37.267Z,14.15
2023-05-12T18:43:03.651Z,14.05
2023-05-12T18:45:30.075Z,13.97
2023-05-12T18:47:56.736Z,13.85
2023-05-12T18:50:24.476Z,13.79
2023-05-12T18:52:50.868Z,13.70
2023-05-12T18:55:17.333Z,13.66
2023-05-12T18:57:43.717Z,13.63
2023-05-12T19:00:10.291Z,13.55
2023-05-12T19:02:36.736Z,13.45
2023-05-12T19:05:03.398Z,13.33
2023-05-12T19:07:29.784Z,13.22
2023-05-12T19:09:56.269Z,13.14
2023-05-12T19:12:22.621Z,13.07
2023-05-12T19:14:48.950Z,13.01
2023-05-12T19:17:15.343Z,12.98
2023-05-12T19:19:41.752Z,12.94
2023-05-12T19:22:19.207Z,12.87
2023-05-12T19:24:45.644Z,12.81
2023-05-12T19:27:11.950Z,12.75
2023-05-12T19:29:38.301Z,12.73
2023-05-12T19:32:04.926Z,12.70
2023-05-12T19:34:31.555Z,12.65
2023-05-12T19:36:59.631Z,12.60
2023-05-12T19:39:28.695Z,12.54
2023-05-12T19:41:55.229Z,12.46
2023-05-12T19:44:21.596Z,12.38
2023-05-12T19:46:48.017Z,12.31
2023-05-12T19:49:14.496Z,12.22
2023-05-12T19:51:43.943Z,12.13
2023-05-12T19:54:10.288Z,12.05
2023-05-12T19:56:36.582Z,12.00
2023-05-12T19:59:02.976Z,11.96
2023-05-12T20:01:29.540Z,11.90
2023-05-12T20:03:56.143Z,11.85
2023-05-12T20:06:23.483Z,11.82
2023-05-12T20:08:50.255Z,11.75
2023-05-12T20:11:16.852Z,11.68
2023-05-12T20:13:43.146Z,11.63
2023-05-12T20:16:09.581Z,11.58
2023-05-12T20:18:35.887Z,11.55
2023-05-12T20:21:02.269Z,11.55
2023-05-12T20:23:28.624Z,11.54
2023-05-12T20:25:54.983Z,11.52
2023-05-12T20:28:21.444Z,11.47
2023-05-12T20:30:47.729Z,11.41
2023-05-12T20:33:14.173Z,11.38
2023-05-12T20:35:40.560Z,11.35
2023-05-12T20:38:06.920Z,11.33
2023-05-12T20:40:33.254Z,11.30
2023-05-12T20:42:59.527Z,11.28
2023-05-12T20:45:25.862Z,11.26
2023-05-12T20:47:52.213Z,11.23
2023-05-12T20:50:18.651Z,11.20
2023-05-12T20:52:45.124Z,11.17
2023-05-12T20:55:11.484Z,11.15
2023-05-12T20:57:38.028Z,11.13
2023-05-12T21:00:04.830Z,11.09
2023-05-12T21:02:31.332Z,11.06
2023-05-12T21:04:57.871Z,11.03
2023-05-12T21:07:24.309Z,11.02
2023-05-12T21:09:50.646Z,11.01
2023-05-12T21:12:17.017Z,10.99
2023-05-12T21:14:43.914Z,10.99
2023-05-12T21:17:10.650Z,10.99
2023-05-12T21:19:37.900Z,10.98
2023-05-12T21:22:04.747Z,10.94
2023-05-12T21:24:31.163Z,10.88
2023-05-12T21:26:58.472Z,10.86
2023-05-12T21:29:24.806Z,10.85
2023-05-12T21:31:51.209Z,10.86
2023-05-12T21:34:17.510Z,10.86
2023-05-12T21:36:43.931Z,10.85
2023-05-12T21:39:10.259Z,10.86
2023-05-12T21:41:36.615Z,10.85
2023-05-12T21:44:03.182Z,10.82
2023-05-12T21:46:29.426Z,10.80
2023-05-12T21:48:59.817Z,10.77
2023-05-12T21:51:26.558Z,10.72
2023-05-12T21:53:55.734Z,10.67
2023-05-12T21:56:22.388Z,10.62
2023-05-12T21:58:49.662Z,10.56
2023-05-12T22:01:16.560Z,10.52
2023-05-12T22:03:43.177Z,10.45
2023-05-12T22:06:16.741Z,10.37
2023-05-12T22:08:45.028Z,10.30
2023-05-12T22:11:11.362Z,10.23
2023-05-12T22:13:37.664Z,10.20
2023-05-12T22:16:04.236Z,10.14
2023-05-12T22:18:30.733Z,10.08
2023-05-12T22:20:57.086Z,10.05
2023-05-12T22:23:23.487Z,10.02
2023-05-12T22:25:49.915Z,10.00
2023-05-12T22:28:16.247Z,9.97
2023-05-12T22:30:42.776Z,9.95
2023-05-12T22:33:09.184Z,9.94
2023-05-12T22:35:35.501Z,9.94
2023-05-12T22:38:01.801Z,9.95
2023-05-12T22:40:28.177Z,9.99
2023-05-12T22:42:54.490Z,10.03
2023-05-12T22:45:20.747Z,10.05
2023-05-12T22:47:47.106Z,10.06
2023-05-12T22:50:13.553Z,10.06
2023-05-12T22:52:39.923Z,10.05
2023-05-12T22:55:06.376Z,10.04
2023-05-12T22:57:32.731Z,10.02
2023-05-12T22:59:59.030Z,9.97
2023-05-12T23:02:25.324Z,9.93
2023-05-12T23:04:51.763Z,9.88
2023-05-12T23:07:18.099Z,9.83
2023-05-12T23:09:44.405Z,9.78
2023-05-12T23:12:10.696Z,9.71
2023-05-12T23:14:37.000Z,9.66
2023-05-12T23:17:03.379Z,9.60
2023-05-12T23:19:29.773Z,9.53
2023-05-12T23:21:56.335Z,9.46
2023-05-12T23:24:22.637Z,9.40
2023-05-12T23:26:48.929Z,9.38
2023-05-12T23:29:15.367Z,9.38
2023-05-12T23:31:41.716Z,9.36
2023-05-12T23:34:07.987Z,9.33
2023-05-12T23:36:34.270Z,9.33
2023-05-12T23:39:00.686Z,9.35
2023-05-12T23:41:27.054Z,9.37
2023-05-12T23:43:53.381Z,9.42
2023-05-12T23:46:19.653Z,9.48
2023-05-12T23:48:45.914Z,9.53
2023-05-12T23:51:12.173Z,9.57
2023-05-12T23:53:38.448Z,9.62
2023-05-12T23:56:04.903Z,9.65
2023-05-12T23:58:31.181Z,9.66
